sensor_id;sensor_type;location;lat;lon;timestamp;P1;durP1;ratioP1;P2;durP2;ratioP2
26690;SDS011;14307;51.718;8.938;2023-04-12T00:00:53;20.83;;;19.25;;
26690;SDS011;14307;51.718;8.938;2023-04-12T00:03:20;20.35;;;18.70;;
26690;SDS011;14307;51.718;8.938;2023-04-12T00:05:48;20.48;;;18.95;;
26690;SDS011;14307;51.718;8.938;2023-04-12T00:08:23;20.45;;;18.70;;
26690;SDS011;14307;51.718;8.938;2023-04-12T00:10:58;20.70;;;18.63;;
26690;SDS011;14307;51.718;8.938;2023-04-12T00:13:26;21.00;;;18.98;;
26690;SDS011;14307;51.718;8.938;2023-04-12T00:15:52;20.23;;;18.48;;
26690;SDS011;14307;51.718;8.938;2023-04-12T00:18:19;20.98;;;18.88;;
26690;SDS011;14307;51.718;8.938;2023-04-12T00:20:50;19.55;;;18.08;;
26690;SDS011;14307;51.718;8.938;2023-04-12T00:23:17;19.60;;;17.70;;
26690;SDS011;14307;51.718;8.938;2023-04-12T00:25:44;19.35;;;17.75;;
26690;SDS011;14307;51.718;8.938;2023-04-12T00:28:11;19.02;;;17.45;;
26690;SDS011;14307;51.718;8.938;2023-04-12T00:30:38;19.17;;;17.42;;
26690;SDS011;14307;51.718;8.938;2023-04-12T00:33:06;18.77;;;17.27;;
26690;SDS011;14307;51.718;8.938;2023-04-12T00:35:33;19.98;;;17.90;;
26690;SDS011;14307;51.718;8.938;2023-04-12T00:37:59;20.30;;;18.35;;
26690;SDS011;14307;51.718;8.938;2023-04-12T00:40:28;20.77;;;18.65;;
26690;SDS011;14307;51.718;8.938;2023-04-12T00:42:55;21.15;;;19.27;;
26690;SDS011;14307;51.718;8.938;2023-04-12T00:45:22;20.70;;;18.58;;
26690;SDS011;14307;51.718;8.938;2023-04-12T00:47:48;21.33;;;19.33;;
26690;SDS011;14307;51.718;8.938;2023-04-12T00:50:15;21.50;;;19.52;;
26690;SDS011;14307;51.718;8.938;2023-04-12T00:52:42;21.90;;;20.08;;
26690;SDS011;14307;51.718;8.938;2023-04-12T00:55:09;22.15;;;20.15;;
26690;SDS011;14307;51.718;8.938;2023-04-12T00:57:36;22.17;;;20.15;;
26690;SDS011;14307;51.718;8.938;2023-04-12T01:00:05;22.35;;;20.30;;
26690;SDS011;14307;51.718;8.938;2023-04-12T01:02:43;24.35;;;20.98;;
26690;SDS011;14307;51.718;8.938;2023-04-12T01:05:16;22.40;;;20.45;;
26690;SDS011;14307;51.718;8.938;2023-04-12T01:15:49;23.58;;;21.65;;
26690;SDS011;14307;51.718;8.938;2023-04-12T01:18:24;22.60;;;20.58;;
26690;SDS011;14307;51.718;8.938;2023-04-12T01:20:59;22.55;;;20.52;;
26690;SDS011;14307;51.718;8.938;2023-04-12T01:23:37;22.63;;;21.07;;
26690;SDS011;14307;51.718;8.938;2023-04-12T01:28:52;23.58;;;21.48;;
26690;SDS011;14307;51.718;8.938;2023-04-12T01:31:19;22.95;;;20.85;;
26690;SDS011;14307;51.718;8.938;2023-04-12T01:33:49;23.20;;;20.90;;
26690;SDS011;14307;51.718;8.938;2023-04-12T01:36:19;22.60;;;20.90;;
26690;SDS011;14307;51.718;8.938;2023-04-12T01:38:47;22.92;;;20.88;;
26690;SDS011;14307;51.718;8.938;2023-04-12T01:41:15;23.23;;;21.33;;
26690;SDS011;14307;51.718;8.938;2023-04-12T01:43:43;23.35;;;21.05;;
26690;SDS011;14307;51.718;8.938;2023-04-12T01:46:11;23.50;;;21.10;;
26690;SDS011;14307;51.718;8.938;2023-04-12T01:48:40;23.88;;;21.85;;
26690;SDS011;14307;51.718;8.938;2023-04-12T01:51:15;22.77;;;20.85;;
26690;SDS011;14307;51.718;8.938;2023-04-12T01:53:47;23.33;;;21.00;;
26690;SDS011;14307;51.718;8.938;2023-04-12T01:56:19;23.98;;;21.73;;
26690;SDS011;14307;51.718;8.938;2023-04-12T01:58:47;22.33;;;20.60;;
26690;SDS011;14307;51.718;8.938;2023-04-12T02:01:17;22.52;;;20.83;;
26690;SDS011;14307;51.718;8.938;2023-04-12T02:03:44;23.45;;;20.98;;
26690;SDS011;14307;51.718;8.938;2023-04-12T02:06:15;23.08;;;21.10;;
26690;SDS011;14307;51.718;8.938;2023-04-12T02:08:46;22.75;;;21.00;;
26690;SDS011;14307;51.718;8.938;2023-04-12T02:11:13;23.13;;;21.05;;
26690;SDS011;14307;51.718;8.938;2023-04-12T02:13:42;23.67;;;21.58;;
26690;SDS011;14307;51.718;8.938;2023-04-12T02:16:09;22.50;;;20.77;;
26690;SDS011;14307;51.718;8.938;2023-04-12T02:18:38;23.63;;;21.27;;
26690;SDS011;14307;51.718;8.938;2023-04-12T02:21:08;22.63;;;20.83;;
26690;SDS011;14307;51.718;8.938;2023-04-12T02:23:35;23.20;;;21.40;;
26690;SDS011;14307;51.718;8.938;2023-04-12T02:26:01;22.95;;;21.00;;
26690;SDS011;14307;51.718;8.938;2023-04-12T02:28:31;23.42;;;21.50;;
26690;SDS011;14307;51.718;8.938;2023-04-12T02:31:00;22.80;;;20.95;;
26690;SDS011;14307;51.718;8.938;2023-04-12T02:33:29;23.55;;;21.50;;
26690;SDS011;14307;51.718;8.938;2023-04-12T02:35:58;22.33;;;20.65;;
26690;SDS011;14307;51.718;8.938;2023-04-12T02:38:28;22.55;;;20.63;;
26690;SDS011;14307;51.718;8.938;2023-04-12T02:40:58;22.42;;;20.60;;
26690;SDS011;14307;51.718;8.938;2023-04-12T02:43:24;22.70;;;20.90;;
26690;SDS011;14307;51.718;8.938;2023-04-12T02:45:58;22.65;;;20.75;;
26690;SDS011;14307;51.718;8.938;2023-04-12T02:48:25;22.63;;;20.77;;
26690;SDS011;14307;51.718;8.938;2023-04-12T02:50:52;22.67;;;20.60;;
26690;SDS011;14307;51.718;8.938;2023-04-12T02:53:21;21.95;;;20.17;;
26690;SDS011;14307;51.718;8.938;2023-04-12T02:56:04;23.42;;;21.27;;
26690;SDS011;14307;51.718;8.938;2023-04-12T02:58:32;23.40;;;21.38;;
26690;SDS011;14307;51.718;8.938;2023-04-12T03:00:59;23.55;;;21.08;;
26690;SDS011;14307;51.718;8.938;2023-04-12T03:03:33;22.70;;;21.02;;
26690;SDS011;14307;51.718;8.938;2023-04-12T03:06:12;23.35;;;21.23;;
26690;SDS011;14307;51.718;8.938;2023-04-12T03:08:39;24.45;;;21.10;;
26690;SDS011;14307;51.718;8.938;2023-04-12T03:11:05;22.08;;;20.45;;
26690;SDS011;14307;51.718;8.938;2023-04-12T03:13:32;21.92;;;20.27;;
26690;SDS011;14307;51.718;8.938;2023-04-12T03:15:59;22.27;;;20.42;;
26690;SDS011;14307;51.718;8.938;2023-04-12T03:18:44;23.67;;;21.45;;
26690;SDS011;14307;51.718;8.938;2023-04-12T03:21:11;22.48;;;20.42;;
26690;SDS011;14307;51.718;8.938;2023-04-12T03:23:40;22.30;;;20.40;;
26690;SDS011;14307;51.718;8.938;2023-04-12T03:26:14;21.98;;;20.27;;
26690;SDS011;14307;51.718;8.938;2023-04-12T03:28:58;22.23;;;20.35;;
26690;SDS011;14307;51.718;8.938;2023-04-12T03:31:29;22.92;;;21.27;;
26690;SDS011;14307;51.718;8.938;2023-04-12T03:34:02;22.52;;;20.75;;
26690;SDS011;14307;51.718;8.938;2023-04-12T03:36:29;25.27;;;22.80;;
26690;SDS011;14307;51.718;8.938;2023-04-12T03:39:04;22.10;;;20.60;;
26690;SDS011;14307;51.718;8.938;2023-04-12T03:41:33;22.75;;;20.98;;
26690;SDS011;14307;51.718;8.938;2023-04-12T03:44:02;23.38;;;21.67;;
26690;SDS011;14307;51.718;8.938;2023-04-12T03:46:31;22.50;;;20.55;;
26690;SDS011;14307;51.718;8.938;2023-04-12T03:49:03;22.60;;;20.98;;
26690;SDS011;14307;51.718;8.938;2023-04-12T03:51:31;22.48;;;20.38;;
26690;SDS011;14307;51.718;8.938;2023-04-12T03:54:00;23.17;;;21.27;;
26690;SDS011;14307;51.718;8.938;2023-04-12T03:56:33;22.33;;;20.60;;
26690;SDS011;14307;51.718;8.938;2023-04-12T03:59:04;22.45;;;20.58;;
26690;SDS011;14307;51.718;8.938;2023-04-12T04:01:34;22.63;;;20.73;;
26690;SDS011;14307;51.718;8.938;2023-04-12T04:04:01;21.63;;;20.02;;
26690;SDS011;14307;51.718;8.938;2023-04-12T04:06:29;21.50;;;19.63;;
26690;SDS011;14307;51.718;8.938;2023-04-12T04:08:56;22.90;;;20.75;;
26690;SDS011;14307;51.718;8.938;2023-04-12T04:11:24;22.08;;;19.70;;
26690;SDS011;14307;51.718;8.938;2023-04-12T04:13:58;20.65;;;18.77;;
26690;SDS011;14307;51.718;8.938;2023-04-12T04:16:26;19.92;;;18.15;;
26690;SDS011;14307;51.718;8.938;2023-04-12T04:18:54;19.85;;;18.42;;
26690;SDS011;14307;51.718;8.938;2023-04-12T04:21:22;20.20;;;18.70;;
26690;SDS011;14307;51.718;8.938;2023-04-12T04:23:55;20.67;;;18.98;;
26690;SDS011;14307;51.718;8.938;2023-04-12T04:26:24;19.35;;;17.55;;
26690;SDS011;14307;51.718;8.938;2023-04-12T04:29:02;20.15;;;18.35;;
26690;SDS011;14307;51.718;8.938;2023-04-12T04:31:34;19.60;;;18.25;;
26690;SDS011;14307;51.718;8.938;2023-04-12T04:34:04;19.35;;;17.85;;
26690;SDS011;14307;51.718;8.938;2023-04-12T04:36:36;18.50;;;16.63;;
26690;SDS011;14307;51.718;8.938;2023-04-12T04:39:04;18.67;;;16.90;;
26690;SDS011;14307;51.718;8.938;2023-04-12T04:41:42;20.95;;;19.13;;
26690;SDS011;14307;51.718;8.938;2023-04-12T04:44:21;18.10;;;16.40;;
26690;SDS011;14307;51.718;8.938;2023-04-12T04:46:54;17.88;;;16.55;;
26690;SDS011;14307;51.718;8.938;2023-04-12T04:49:24;20.95;;;19.08;;
26690;SDS011;14307;51.718;8.938;2023-04-12T04:51:50;18.27;;;16.45;;
26690;SDS011;14307;51.718;8.938;2023-04-12T04:54:19;18.40;;;17.08;;
26690;SDS011;14307;51.718;8.938;2023-04-12T04:56:45;18.60;;;16.83;;
26690;SDS011;14307;51.718;8.938;2023-04-12T04:59:14;17.83;;;16.20;;
26690;SDS011;14307;51.718;8.938;2023-04-12T05:01:42;16.48;;;15.10;;
26690;SDS011;14307;51.718;8.938;2023-04-12T05:04:09;16.08;;;14.70;;
26690;SDS011;14307;51.718;8.938;2023-04-12T05:06:36;15.55;;;14.52;;
26690;SDS011;14307;51.718;8.938;2023-04-12T05:09:06;14.70;;;13.52;;
26690;SDS011;14307;51.718;8.938;2023-04-12T05:11:37;15.00;;;13.55;;
26690;SDS011;14307;51.718;8.938;2023-04-12T05:14:09;14.60;;;13.32;;
26690;SDS011;14307;51.718;8.938;2023-04-12T05:16:37;15.02;;;13.55;;
26690;SDS011;14307;51.718;8.938;2023-04-12T05:19:05;14.20;;;13.20;;
26690;SDS011;14307;51.718;8.938;2023-04-12T05:21:33;16.48;;;13.68;;
26690;SDS011;14307;51.718;8.938;2023-04-12T05:24:05;13.82;;;12.80;;
26690;SDS011;14307;51.718;8.938;2023-04-12T05:26:35;14.70;;;12.88;;
26690;SDS011;14307;51.718;8.938;2023-04-12T05:29:06;15.05;;;13.65;;
26690;SDS011;14307;51.718;8.938;2023-04-12T05:31:33;14.75;;;12.82;;
26690;SDS011;14307;51.718;8.938;2023-04-12T05:34:04;14.00;;;12.95;;
26690;SDS011;14307;51.718;8.938;2023-04-12T05:36:33;25.48;;;13.18;;
26690;SDS011;14307;51.718;8.938;2023-04-12T05:39:02;13.75;;;12.55;;
26690;SDS011;14307;51.718;8.938;2023-04-12T05:41:31;13.40;;;12.10;;
26690;SDS011;14307;51.718;8.938;2023-04-12T05:43:59;12.50;;;11.43;;
26690;SDS011;14307;51.718;8.938;2023-04-12T05:46:25;13.68;;;12.32;;
26690;SDS011;14307;51.718;8.938;2023-04-12T05:48:52;13.23;;;12.05;;
26690;SDS011;14307;51.718;8.938;2023-04-12T05:51:18;18.05;;;11.52;;
26690;SDS011;14307;51.718;8.938;2023-04-12T05:54:03;14.88;;;12.05;;
26690;SDS011;14307;51.718;8.938;2023-04-12T05:56:34;12.80;;;11.45;;
26690;SDS011;14307;51.718;8.938;2023-04-12T05:59:01;11.68;;;10.82;;
26690;SDS011;14307;51.718;8.938;2023-04-12T06:01:30;12.75;;;11.65;;
26690;SDS011;14307;51.718;8.938;2023-04-12T06:03:59;13.38;;;12.00;;
26690;SDS011;14307;51.718;8.938;2023-04-12T06:06:27;16.15;;;11.68;;
26690;SDS011;14307;51.718;8.938;2023-04-12T06:08:55;12.90;;;10.98;;
26690;SDS011;14307;51.718;8.938;2023-04-12T06:11:28;11.90;;;10.77;;
26690;SDS011;14307;51.718;8.938;2023-04-12T06:13:59;12.68;;;11.68;;
26690;SDS011;14307;51.718;8.938;2023-04-12T06:16:27;12.85;;;11.05;;
26690;SDS011;14307;51.718;8.938;2023-04-12T06:18:55;12.75;;;11.65;;
26690;SDS011;14307;51.718;8.938;2023-04-12T06:21:22;16.17;;;12.75;;
26690;SDS011;14307;51.718;8.938;2023-04-12T06:23:50;13.60;;;12.20;;
26690;SDS011;14307;51.718;8.938;2023-04-12T06:26:17;12.95;;;11.85;;
26690;SDS011;14307;51.718;8.938;2023-04-12T06:28:44;14.18;;;12.80;;
26690;SDS011;14307;51.718;8.938;2023-04-12T06:31:11;14.32;;;13.10;;
26690;SDS011;14307;51.718;8.938;2023-04-12T06:33:39;15.50;;;13.05;;
26690;SDS011;14307;51.718;8.938;2023-04-12T06:36:08;14.20;;;12.95;;
26690;SDS011;14307;51.718;8.938;2023-04-12T06:38:36;13.57;;;12.48;;
26690;SDS011;14307;51.718;8.938;2023-04-12T06:41:03;12.55;;;11.65;;
26690;SDS011;14307;51.718;8.938;2023-04-12T06:43:29;12.88;;;11.73;;
26690;SDS011;14307;51.718;8.938;2023-04-12T06:45:57;12.68;;;11.35;;
26690;SDS011;14307;51.718;8.938;2023-04-12T06:48:24;12.73;;;11.25;;
26690;SDS011;14307;51.718;8.938;2023-04-12T06:50:51;12.15;;;11.07;;
26690;SDS011;14307;51.718;8.938;2023-04-12T06:53:18;12.65;;;11.40;;
26690;SDS011;14307;51.718;8.938;2023-04-12T06:55:45;12.63;;;11.73;;
26690;SDS011;14307;51.718;8.938;2023-04-12T06:58:11;15.73;;;12.30;;
26690;SDS011;14307;51.718;8.938;2023-04-12T07:00:40;11.77;;;10.88;;
26690;SDS011;14307;51.718;8.938;2023-04-12T07:03:07;12.73;;;11.45;;
26690;SDS011;14307;51.718;8.938;2023-04-12T07:05:38;12.45;;;11.43;;
26690;SDS011;14307;51.718;8.938;2023-04-12T07:08:06;12.50;;;11.38;;
26690;SDS011;14307;51.718;8.938;2023-04-12T07:10:33;19.77;;;12.60;;
26690;SDS011;14307;51.718;8.938;2023-04-12T07:13:01;11.30;;;10.38;;
26690;SDS011;14307;51.718;8.938;2023-04-12T07:15:32;11.70;;;10.50;;
26690;SDS011;14307;51.718;8.938;2023-04-12T07:17:59;9.43;;;8.52;;
26690;SDS011;14307;51.718;8.938;2023-04-12T07:20:26;10.02;;;8.55;;
26690;SDS011;14307;51.718;8.938;2023-04-12T07:22:52;11.18;;;8.43;;
26690;SDS011;14307;51.718;8.938;2023-04-12T07:25:19;9.77;;;8.77;;
26690;SDS011;14307;51.718;8.938;2023-04-12T07:27:45;14.70;;;8.40;;
26690;SDS011;14307;51.718;8.938;2023-04-12T07:30:13;8.25;;;7.25;;
26690;SDS011;14307;51.718;8.938;2023-04-12T07:32:40;9.88;;;7.38;;
26690;SDS011;14307;51.718;8.938;2023-04-12T07:35:06;11.05;;;7.55;;
26690;SDS011;14307;51.718;8.938;2023-04-12T07:37:34;14.68;;;8.52;;
26690;SDS011;14307;51.718;8.938;2023-04-12T07:40:01;11.57;;;6.40;;
26690;SDS011;14307;51.718;8.938;2023-04-12T07:42:27;12.88;;;6.53;;
26690;SDS011;14307;51.718;8.938;2023-04-12T07:44:54;12.15;;;6.97;;
26690;SDS011;14307;51.718;8.938;2023-04-12T07:47:21;9.00;;;5.57;;
26690;SDS011;14307;51.718;8.938;2023-04-12T07:49:48;13.35;;;6.88;;
26690;SDS011;14307;51.718;8.938;2023-04-12T07:52:14;14.13;;;6.03;;
26690;SDS011;14307;51.718;8.938;2023-04-12T07:54:41;13.18;;;7.53;;
26690;SDS011;14307;51.718;8.938;2023-04-12T07:57:08;11.73;;;6.00;;
26690;SDS011;14307;51.718;8.938;2023-04-12T07:59:35;12.15;;;6.15;;
26690;SDS011;14307;51.718;8.938;2023-04-12T08:02:02;8.35;;;5.88;;
26690;SDS011;14307;51.718;8.938;2023-04-12T08:04:31;14.43;;;7.43;;
26690;SDS011;14307;51.718;8.938;2023-04-12T08:06:58;9.43;;;5.28;;
26690;SDS011;14307;51.718;8.938;2023-04-12T08:09:25;9.75;;;4.97;;
26690;SDS011;14307;51.718;8.938;2023-04-12T08:11:51;14.98;;;7.75;;
26690;SDS011;14307;51.718;8.938;2023-04-12T08:14:18;8.80;;;6.13;;
26690;SDS011;14307;51.718;8.938;2023-04-12T08:16:45;9.65;;;7.30;;
26690;SDS011;14307;51.718;8.938;2023-04-12T08:19:12;10.65;;;7.15;;
26690;SDS011;14307;51.718;8.938;2023-04-12T08:21:38;8.30;;;6.00;;
26690;SDS011;14307;51.718;8.938;2023-04-12T08:24:05;9.38;;;5.10;;
26690;SDS011;14307;51.718;8.938;2023-04-12T08:26:32;11.00;;;5.30;;
26690;SDS011;14307;51.718;8.938;2023-04-12T08:28:59;9.43;;;6.00;;
26690;SDS011;14307;51.718;8.938;2023-04-12T08:31:27;13.82;;;5.63;;
26690;SDS011;14307;51.718;8.938;2023-04-12T08:33:54;6.47;;;4.70;;
26690;SDS011;14307;51.718;8.938;2023-04-12T08:36:22;10.00;;;5.32;;
26690;SDS011;14307;51.718;8.938;2023-04-12T08:38:48;9.90;;;5.88;;
26690;SDS011;14307;51.718;8.938;2023-04-12T08:41:17;6.88;;;4.47;;
26690;SDS011;14307;51.718;8.938;2023-04-12T08:43:45;4.80;;;4.30;;
26690;SDS011;14307;51.718;8.938;2023-04-12T08:46:13;13.90;;;6.50;;
26690;SDS011;14307;51.718;8.938;2023-04-12T08:48:41;9.65;;;6.38;;
26690;SDS011;14307;51.718;8.938;2023-04-12T08:51:16;8.23;;;4.57;;
26690;SDS011;14307;51.718;8.938;2023-04-12T08:53:44;5.35;;;4.72;;
26690;SDS011;14307;51.718;8.938;2023-04-12T08:56:11;6.90;;;4.78;;
26690;SDS011;14307;51.718;8.938;2023-04-12T08:58:39;20.27;;;11.10;;
26690;SDS011;14307;51.718;8.938;2023-04-12T09:01:11;27.65;;;14.60;;
26690;SDS011;14307;51.718;8.938;2023-04-12T09:03:43;18.80;;;10.52;;
26690;SDS011;14307;51.718;8.938;2023-04-12T09:06:11;12.20;;;6.05;;
26690;SDS011;14307;51.718;8.938;2023-04-12T09:08:54;6.80;;;4.32;;
26690;SDS011;14307;51.718;8.938;2023-04-12T09:11:23;6.80;;;4.90;;
26690;SDS011;14307;51.718;8.938;2023-04-12T09:13:52;13.70;;;10.10;;
26690;SDS011;14307;51.718;8.938;2023-04-12T09:16:32;7.45;;;6.05;;
26690;SDS011;14307;51.718;8.938;2023-04-12T09:19:04;11.82;;;5.13;;
26690;SDS011;14307;51.718;8.938;2023-04-12T09:21:34;8.43;;;5.50;;
26690;SDS011;14307;51.718;8.938;2023-04-12T09:24:11;12.30;;;7.97;;
26690;SDS011;14307;51.718;8.938;2023-04-12T09:26:40;9.65;;;6.60;;
26690;SDS011;14307;51.718;8.938;2023-04-12T09:29:19;7.68;;;4.47;;
26690;SDS011;14307;51.718;8.938;2023-04-12T09:31:56;5.20;;;4.70;;
26690;SDS011;14307;51.718;8.938;2023-04-12T09:34:31;11.95;;;6.78;;
26690;SDS011;14307;51.718;8.938;2023-04-12T09:37:13;8.73;;;5.47;;
26690;SDS011;14307;51.718;8.938;2023-04-12T09:39:41;6.78;;;5.13;;
26690;SDS011;14307;51.718;8.938;2023-04-12T09:42:09;8.73;;;5.93;;
26690;SDS011;14307;51.718;8.938;2023-04-12T09:44:57;7.28;;;4.82;;
26690;SDS011;14307;51.718;8.938;2023-04-12T09:47:35;16.17;;;10.77;;
26690;SDS011;14307;51.718;8.938;2023-04-12T09:50:04;8.48;;;4.93;;
26690;SDS011;14307;51.718;8.938;2023-04-12T09:52:36;7.38;;;4.50;;
26690;SDS011;14307;51.718;8.938;2023-04-12T09:55:07;4.80;;;4.07;;
26690;SDS011;14307;51.718;8.938;2023-04-12T09:57:42;4.43;;;3.83;;
26690;SDS011;14307;51.718;8.938;2023-04-12T10:00:10;6.15;;;5.00;;
26690;SDS011;14307;51.718;8.938;2023-04-12T10:02:40;4.68;;;4.15;;
26690;SDS011;14307;51.718;8.938;2023-04-12T10:05:12;7.72;;;4.60;;
26690;SDS011;14307;51.718;8.938;2023-04-12T10:07:41;7.13;;;5.22;;
26690;SDS011;14307;51.718;8.938;2023-04-12T10:10:10;6.13;;;4.78;;
26690;SDS011;14307;51.718;8.938;2023-04-12T10:12:38;5.80;;;4.88;;
26690;SDS011;14307;51.718;8.938;2023-04-12T10:15:07;8.68;;;4.85;;
26690;SDS011;14307;51.718;8.938;2023-04-12T10:17:40;4.03;;;3.72;;
26690;SDS011;14307;51.718;8.938;2023-04-12T10:20:11;6.85;;;6.15;;
26690;SDS011;14307;51.718;8.938;2023-04-12T10:22:39;5.45;;;4.35;;
26690;SDS011;14307;51.718;8.938;2023-04-12T10:25:10;5.82;;;4.95;;
26690;SDS011;14307;51.718;8.938;2023-04-12T10:27:39;5.03;;;4.53;;
26690;SDS011;14307;51.718;8.938;2023-04-12T10:35:47;4.88;;;4.07;;
26690;SDS011;14307;51.718;8.938;2023-04-12T10:38:19;5.32;;;4.82;;
26690;SDS011;14307;51.718;8.938;2023-04-12T10:49:11;5.50;;;5.10;;
26690;SDS011;14307;51.718;8.938;2023-04-12T10:54:29;5.93;;;5.50;;
26690;SDS011;14307;51.718;8.938;2023-04-12T10:56:57;6.72;;;6.07;;
26690;SDS011;14307;51.718;8.938;2023-04-12T11:02:16;7.63;;;5.90;;
26690;SDS011;14307;51.718;8.938;2023-04-12T11:05:02;5.25;;;4.95;;
26690;SDS011;14307;51.718;8.938;2023-04-12T11:07:50;6.35;;;5.85;;
26690;SDS011;14307;51.718;8.938;2023-04-12T11:10:37;6.70;;;6.30;;
26690;SDS011;14307;51.718;8.938;2023-04-12T11:13:05;6.45;;;6.05;;
26690;SDS011;14307;51.718;8.938;2023-04-12T11:15:34;7.78;;;6.65;;
26690;SDS011;14307;51.718;8.938;2023-04-12T11:18:11;7.53;;;7.15;;
26690;SDS011;14307;51.718;8.938;2023-04-12T11:20:38;7.38;;;6.97;;
26690;SDS011;14307;51.718;8.938;2023-04-12T11:23:05;7.22;;;6.70;;
26690;SDS011;14307;51.718;8.938;2023-04-12T11:25:36;6.63;;;6.22;;
26690;SDS011;14307;51.718;8.938;2023-04-12T11:28:03;7.57;;;7.18;;
26690;SDS011;14307;51.718;8.938;2023-04-12T11:30:50;7.75;;;7.03;;
26690;SDS011;14307;51.718;8.938;2023-04-12T11:33:38;7.22;;;6.72;;
26690;SDS011;14307;51.718;8.938;2023-04-12T11:36:07;6.43;;;6.13;;
26690;SDS011;14307;51.718;8.938;2023-04-12T11:38:37;7.57;;;7.22;;
26690;SDS011;14307;51.718;8.938;2023-04-12T11:41:05;7.30;;;6.90;;
26690;SDS011;14307;51.718;8.938;2023-04-12T11:43:34;7.30;;;6.90;;
26690;SDS011;14307;51.718;8.938;2023-04-12T11:46:03;5.47;;;5.18;;
26690;SDS011;14307;51.718;8.938;2023-04-12T11:48:31;6.35;;;5.85;;
26690;SDS011;14307;51.718;8.938;2023-04-12T11:50:58;7.47;;;7.07;;
26690;SDS011;14307;51.718;8.938;2023-04-12T11:53:36;7.53;;;7.22;;
26690;SDS011;14307;51.718;8.938;2023-04-12T11:56:03;8.07;;;7.60;;
26690;SDS011;14307;51.718;8.938;2023-04-12T11:58:30;9.00;;;8.63;;
26690;SDS011;14307;51.718;8.938;2023-04-12T12:00:58;7.93;;;7.53;;
26690;SDS011;14307;51.718;8.938;2023-04-12T12:03:25;7.45;;;7.05;;
26690;SDS011;14307;51.718;8.938;2023-04-12T12:05:52;10.10;;;9.40;;
26690;SDS011;14307;51.718;8.938;2023-04-12T12:08:20;10.32;;;9.90;;
26690;SDS011;14307;51.718;8.938;2023-04-12T12:10:47;12.23;;;11.63;;
26690;SDS011;14307;51.718;8.938;2023-04-12T12:13:46;10.68;;;10.18;;
26690;SDS011;14307;51.718;8.938;2023-04-12T12:16:14;14.18;;;13.50;;
26690;SDS011;14307;51.718;8.938;2023-04-12T12:18:42;13.10;;;12.30;;
26690;SDS011;14307;51.718;8.938;2023-04-12T12:21:11;13.00;;;12.40;;
26690;SDS011;14307;51.718;8.938;2023-04-12T12:23:41;15.68;;;14.88;;
26690;SDS011;14307;51.718;8.938;2023-04-12T12:26:08;13.68;;;12.98;;
26690;SDS011;14307;51.718;8.938;2023-04-12T12:28:47;24.45;;;20.58;;
26690;SDS011;14307;51.718;8.938;2023-04-12T12:31:21;16.70;;;15.23;;
26690;SDS011;14307;51.718;8.938;2023-04-12T12:33:53;12.93;;;12.18;;
26690;SDS011;14307;51.718;8.938;2023-04-12T12:36:28;13.18;;;12.57;;
26690;SDS011;14307;51.718;8.938;2023-04-12T12:39:09;15.07;;;14.38;;
26690;SDS011;14307;51.718;8.938;2023-04-12T12:41:38;15.52;;;14.73;;
26690;SDS011;14307;51.718;8.938;2023-04-12T12:44:05;16.80;;;16.00;;
26690;SDS011;14307;51.718;8.938;2023-04-12T12:46:33;16.52;;;15.73;;
26690;SDS011;14307;51.718;8.938;2023-04-12T12:49:02;16.55;;;15.75;;
26690;SDS011;14307;51.718;8.938;2023-04-12T12:51:29;18.70;;;17.80;;
26690;SDS011;14307;51.718;8.938;2023-04-12T12:53:56;17.95;;;17.05;;
26690;SDS011;14307;51.718;8.938;2023-04-12T12:56:23;20.00;;;19.00;;
26690;SDS011;14307;51.718;8.938;2023-04-12T12:58:50;19.67;;;18.77;;
26690;SDS011;14307;51.718;8.938;2023-04-12T13:01:17;19.00;;;18.10;;
26690;SDS011;14307;51.718;8.938;2023-04-12T13:03:43;20.58;;;19.58;;
26690;SDS011;14307;51.718;8.938;2023-04-12T13:06:11;20.92;;;20.02;;
26690;SDS011;14307;51.718;8.938;2023-04-12T13:08:37;21.95;;;20.92;;
26690;SDS011;14307;51.718;8.938;2023-04-12T13:11:04;23.60;;;22.50;;
26690;SDS011;14307;51.718;8.938;2023-04-12T13:13:31;19.80;;;18.90;;
26690;SDS011;14307;51.718;8.938;2023-04-12T13:15:58;19.27;;;18.38;;
26690;SDS011;14307;51.718;8.938;2023-04-12T13:18:24;19.35;;;18.45;;
26690;SDS011;14307;51.718;8.938;2023-04-12T13:20:51;18.85;;;17.75;;
26690;SDS011;14307;51.718;8.938;2023-04-12T13:23:18;19.77;;;18.77;;
26690;SDS011;14307;51.718;8.938;2023-04-12T13:25:45;28.45;;;26.35;;
26690;SDS011;14307;51.718;8.938;2023-04-12T13:28:12;24.38;;;22.67;;
26690;SDS011;14307;51.718;8.938;2023-04-12T13:30:38;32.67;;;30.48;;
26690;SDS011;14307;51.718;8.938;2023-04-12T13:33:05;35.22;;;31.58;;
26690;SDS011;14307;51.718;8.938;2023-04-12T13:35:32;21.13;;;19.73;;
26690;SDS011;14307;51.718;8.938;2023-04-12T13:37:58;20.75;;;19.35;;
26690;SDS011;14307;51.718;8.938;2023-04-12T13:40:25;21.73;;;20.35;;
26690;SDS011;14307;51.718;8.938;2023-04-12T13:42:52;24.10;;;22.42;;
26690;SDS011;14307;51.718;8.938;2023-04-12T13:45:18;21.77;;;20.67;;
26690;SDS011;14307;51.718;8.938;2023-04-12T13:47:45;21.80;;;20.63;;
26690;SDS011;14307;51.718;8.938;2023-04-12T13:50:12;28.60;;;26.77;;
26690;SDS011;14307;51.718;8.938;2023-04-12T13:52:39;26.55;;;24.85;;
26690;SDS011;14307;51.718;8.938;2023-04-12T13:55:06;60.13;;;46.58;;
26690;SDS011;14307;51.718;8.938;2023-04-12T13:57:33;29.98;;;27.95;;
26690;SDS011;14307;51.718;8.938;2023-04-12T14:00:00;36.80;;;33.67;;
26690;SDS011;14307;51.718;8.938;2023-04-12T14:02:30;53.05;;;47.67;;
26690;SDS011;14307;51.718;8.938;2023-04-12T14:04:57;29.63;;;27.83;;
26690;SDS011;14307;51.718;8.938;2023-04-12T14:07:24;25.98;;;24.23;;
26690;SDS011;14307;51.718;8.938;2023-04-12T14:09:50;52.38;;;47.15;;
26690;SDS011;14307;51.718;8.938;2023-04-12T14:12:17;48.80;;;44.33;;
26690;SDS011;14307;51.718;8.938;2023-04-12T14:14:44;22.70;;;21.50;;
26690;SDS011;14307;51.718;8.938;2023-04-12T14:17:11;33.50;;;31.08;;
26690;SDS011;14307;51.718;8.938;2023-04-12T14:19:38;30.02;;;27.83;;
26690;SDS011;14307;51.718;8.938;2023-04-12T14:22:04;26.92;;;25.13;;
26690;SDS011;14307;51.718;8.938;2023-04-12T14:24:31;24.67;;;23.20;;
26690;SDS011;14307;51.718;8.938;2023-04-12T14:26:58;24.00;;;22.20;;
26690;SDS011;14307;51.718;8.938;2023-04-12T14:29:26;19.70;;;18.58;;
26690;SDS011;14307;51.718;8.938;2023-04-12T14:31:52;15.27;;;14.57;;
26690;SDS011;14307;51.718;8.938;2023-04-12T14:34:19;13.63;;;12.82;;
26690;SDS011;14307;51.718;8.938;2023-04-12T14:36:47;13.90;;;12.82;;
26690;SDS011;14307;51.718;8.938;2023-04-12T14:39:13;15.32;;;9.05;;
26690;SDS011;14307;51.718;8.938;2023-04-12T14:41:41;6.32;;;5.82;;
26690;SDS011;14307;51.718;8.938;2023-04-12T14:44:08;5.07;;;4.60;;
26690;SDS011;14307;51.718;8.938;2023-04-12T14:46:35;5.70;;;5.20;;
26690;SDS011;14307;51.718;8.938;2023-04-12T14:49:01;5.65;;;5.15;;
26690;SDS011;14307;51.718;8.938;2023-04-12T14:51:28;4.75;;;4.35;;
26690;SDS011;14307;51.718;8.938;2023-04-12T14:53:55;4.95;;;4.50;;
26690;SDS011;14307;51.718;8.938;2023-04-12T14:56:24;5.07;;;4.68;;
26690;SDS011;14307;51.718;8.938;2023-04-12T14:58:55;7.03;;;4.80;;
26690;SDS011;14307;51.718;8.938;2023-04-12T15:01:23;6.10;;;5.40;;
26690;SDS011;14307;51.718;8.938;2023-04-12T15:03:51;5.78;;;4.90;;
26690;SDS011;14307;51.718;8.938;2023-04-12T15:06:20;9.88;;;6.75;;
26690;SDS011;14307;51.718;8.938;2023-04-12T15:08:52;7.43;;;6.35;;
26690;SDS011;14307;51.718;8.938;2023-04-12T15:11:20;5.13;;;4.53;;